Time;durP1;ratioP1;P1;durP2;ratioP2;P2;SDS_P1;SDS_P2;PMS_P1;PMS_P2;Temp;Humidity;BMP_temperature;BMP_pressure;BME280_temperature;BME280_humidity;BME280_pressure;Samples;Min_cycle;Max_cycle;Signal;HPM_P1;HPM_P2
2021/09/08 00:01:13;;;;;;;9.90;7.95;;;;;;;;;;4456405;32;20317;-54
2021/09/08 00:03:39;;;;;;;7.75;5.62;;;;;;;;;;4460474;32;20244;-54
2021/09/08 00:06:04;;;;;;;7.47;4.93;;;;;;;;;;4465120;32;20313;-54
2021/09/08 00:08:29;;;;;;;4.57;4.05;;;;;;;;;;4463874;32;20629;-53
2021/09/08 00:10:55;;;;;;;9.68;5.22;;;;;;;;;;4466093;32;20362;-54
2021/09/08 00:13:21;;;;;;;4.68;4.18;;;;;;;;;;4465489;32;20252;-54
2021/09/08 00:15:46;;;;;;;6.35;3.47;;;;;;;;;;4454944;32;20317;-55
2021/09/08 00:18:12;;;;;;;2.10;1.90;;;;;;;;;;4451198;32;20433;-54
2021/09/08 00:20:37;;;;;;;2.65;1.80;;;;;;;;;;4461958;32;20359;-56
2021/09/08 00:23:03;;;;;;;3.78;2.20;;;;;;;;;;4462745;32;20276;-53
2021/09/08 00:25:29;;;;;;;5.87;1.98;;;;;;;;;;4456765;32;20244;-54
2021/09/08 00:27:54;;;;;;;3.65;2.35;;;;;;;;;;4450308;32;20396;-54
2021/09/08 00:30:20;;;;;;;2.28;1.58;;;;;;;;;;4462439;32;20201;-54
2021/09/08 00:32:45;;;;;;;5.87;1.90;;;;;;;;;;4461795;32;20298;-54
2021/09/08 00:35:11;;;;;;;5.90;3.30;;;;;;;;;;4458698;32;20297;-54
2021/09/08 00:37:38;;;;;;;6.07;4.28;;;;;;;;;;4453576;32;20601;-55
2021/09/08 00:40:05;;;;;;;17.37;9.05;;;;;;;;;;4452534;32;20262;-54
2021/09/08 00:42:31;;;;;;;13.25;9.07;;;;;;;;;;4452285;32;20204;-54
2021/09/08 00:44:57;;;;;;;14.93;10.27;;;;;;;;;;4459917;32;20254;-54
2021/09/08 00:47:22;;;;;;;9.80;5.45;;;;;;;;;;4450115;32;20311;-54
2021/09/08 00:49:48;;;;;;;14.63;9.00;;;;;;;;;;4459340;32;20566;-54
2021/09/08 00:52:15;;;;;;;18.52;11.43;;;;;;;;;;4453574;32;20295;-56
2021/09/08 00:54:46;;;;;;;19.90;14.15;;;;;;;;;;4461507;32;20320;-54
2021/09/08 00:57:13;;;;;;;10.07;7.75;;;;;;;;;;4449604;32;20200;-55
2021/09/08 00:59:40;;;;;;;9.68;6.50;;;;;;;;;;4459841;32;20335;-54
2021/09/08 01:02:05;;;;;;;8.52;5.40;;;;;;;;;;4463577;32;20284;-53
2021/09/08 01:04:32;;;;;;;7.15;3.95;;;;;;;;;;4449331;32;20217;-53
2021/09/08 01:06:59;;;;;;;3.95;3.55;;;;;;;;;;4455406;32;20727;-53
2021/09/08 01:09:25;;;;;;;6.95;3.17;;;;;;;;;;4458365;32;20301;-53
2021/09/08 01:11:51;;;;;;;7.12;2.78;;;;;;;;;;4458629;32;20287;-55
2021/09/08 01:14:16;;;;;;;3.17;2.30;;;;;;;;;;4452160;32;20225;-53
2021/09/08 01:16:42;;;;;;;5.78;3.33;;;;;;;;;;4464669;32;20290;-54
2021/09/08 01:19:07;;;;;;;24.42;18.87;;;;;;;;;;4458193;32;20562;-55
2021/09/08 01:21:33;;;;;;;27.35;20.20;;;;;;;;;;4457856;32;20230;-54
2021/09/08 01:24:05;;;;;;;22.77;15.75;;;;;;;;;;4452924;32;20647;-55
2021/09/08 01:26:31;;;;;;;23.33;18.48;;;;;;;;;;4461863;32;20279;-55
2021/09/08 01:28:56;;;;;;;9.88;8.88;;;;;;;;;;4464817;32;20288;-55
2021/09/08 01:31:22;;;;;;;6.62;4.72;;;;;;;;;;4460204;32;20391;-54
2021/09/08 01:33:47;;;;;;;6.40;3.15;;;;;;;;;;4462643;32;20217;-54
2021/09/08 01:36:13;;;;;;;4.82;2.85;;;;;;;;;;4451140;32;20274;-56
2021/09/08 01:38:38;;;;;;;6.43;3.17;;;;;;;;;;4456574;32;20247;-55
2021/09/08 01:41:03;;;;;;;3.85;2.28;;;;;;;;;;4455073;32;20283;-55
2021/09/08 01:43:29;;;;;;;9.30;2.12;;;;;;;;;;4464297;32;20244;-55
2021/09/08 01:45:54;;;;;;;3.87;2.35;;;;;;;;;;4453086;32;20448;-54
2021/09/08 01:48:20;;;;;;;3.58;2.50;;;;;;;;;;4450619;32;20279;-55
2021/09/08 01:50:47;;;;;;;4.57;2.50;;;;;;;;;;4464407;32;20299;-55
2021/09/08 01:53:12;;;;;;;5.35;2.97;;;;;;;;;;4455384;32;20390;-54
2021/09/08 01:55:38;;;;;;;4.12;2.75;;;;;;;;;;4458661;32;20351;-55
2021/09/08 01:58:04;;;;;;;5.45;2.35;;;;;;;;;;4464169;32;20306;-54
2021/09/08 02:00:29;;;;;;;3.70;2.65;;;;;;;;;;4461722;32;20196;-54
2021/09/08 02:02:55;;;;;;;2.80;2.22;;;;;;;;;;4456851;32;20916;-55
2021/09/08 02:05:20;;;;;;;4.18;2.42;;;;;;;;;;4458520;32;20835;-53
2021/09/08 02:07:46;;;;;;;2.97;2.15;;;;;;;;;;4463986;32;20382;-55
2021/09/08 02:10:12;;;;;;;3.90;2.45;;;;;;;;;;4462432;32;20576;-55
2021/09/08 02:12:38;;;;;;;8.60;5.03;;;;;;;;;;4463204;32;20370;-54
2021/09/08 02:15:05;;;;;;;11.30;7.65;;;;;;;;;;4457799;32;20594;-53
2021/09/08 02:17:31;;;;;;;15.23;12.05;;;;;;;;;;4448468;32;20584;-55
2021/09/08 02:19:56;;;;;;;16.77;13.15;;;;;;;;;;4460311;32;20220;-55
2021/09/08 02:22:22;;;;;;;26.67;17.20;;;;;;;;;;4458494;32;20311;-54
2021/09/08 02:24:47;;;;;;;22.35;19.25;;;;;;;;;;4452390;32;20333;-55
2021/09/08 02:27:13;;;;;;;16.15;14.30;;;;;;;;;;4455113;32;20315;-55
2021/09/08 02:29:38;;;;;;;9.55;7.25;;;;;;;;;;4458317;32;20683;-55
2021/09/08 02:32:04;;;;;;;6.15;3.25;;;;;;;;;;4452757;32;20264;-55
2021/09/08 02:34:30;;;;;;;3.87;2.97;;;;;;;;;;4460694;32;20216;-55
2021/09/08 02:36:56;;;;;;;4.53;4.10;;;;;;;;;;4453620;32;20362;-55
2021/09/08 02:39:21;;;;;;;8.52;3.58;;;;;;;;;;4456412;32;20609;-55
2021/09/08 02:41:46;;;;;;;9.80;5.53;;;;;;;;;;4456908;32;20234;-54
2021/09/08 02:44:12;;;;;;;6.87;5.80;;;;;;;;;;4455006;32;20318;-55
2021/09/08 02:46:37;;;;;;;4.20;3.42;;;;;;;;;;4451777;32;20624;-53
2021/09/08 02:49:03;;;;;;;4.95;2.92;;;;;;;;;;4458061;32;20229;-53
2021/09/08 02:51:28;;;;;;;4.18;2.28;;;;;;;;;;4456810;32;20815;-54
2021/09/08 02:53:54;;;;;;;3.62;2.40;;;;;;;;;;4458673;32;20353;-54
2021/09/08 02:56:19;;;;;;;8.93;2.30;;;;;;;;;;4450371;32;20799;-55
2021/09/08 02:58:45;;;;;;;13.98;2.47;;;;;;;;;;4459281;32;20611;-54
2021/09/08 03:01:11;;;;;;;7.95;2.20;;;;;;;;;;4454791;32;20213;-54
2021/09/08 03:03:37;;;;;;;3.45;2.03;;;;;;;;;;4463406;32;20227;-54
2021/09/08 03:06:02;;;;;;;5.40;2.50;;;;;;;;;;4447826;32;20382;-55
2021/09/08 03:08:28;;;;;;;3.72;2.22;;;;;;;;;;4449947;32;20235;-54
2021/09/08 03:10:53;;;;;;;3.33;2.03;;;;;;;;;;4452745;32;20302;-55
2021/09/08 03:13:19;;;;;;;8.07;2.67;;;;;;;;;;4456752;32;20254;-54
2021/09/08 03:15:46;;;;;;;4.45;2.35;;;;;;;;;;4454848;32;20323;-57
2021/09/08 03:18:12;;;;;;;11.90;5.30;;;;;;;;;;4455625;32;20280;-55
2021/09/08 03:20:37;;;;;;;5.95;3.30;;;;;;;;;;4456667;32;20232;-55
2021/09/08 03:23:03;;;;;;;3.80;2.15;;;;;;;;;;4454081;32;20334;-55
2021/09/08 03:25:29;;;;;;;4.85;2.50;;;;;;;;;;4452222;32;20274;-54
2021/09/08 03:27:55;;;;;;;3.65;2.40;;;;;;;;;;4445722;32;20315;-54
2021/09/08 03:30:20;;;;;;;4.35;2.62;;;;;;;;;;4458977;32;20791;-55
2021/09/08 03:32:46;;;;;;;7.00;2.12;;;;;;;;;;4453120;32;20231;-55
2021/09/08 03:35:12;;;;;;;3.78;2.33;;;;;;;;;;4455829;32;20220;-54
2021/09/08 03:37:38;;;;;;;6.18;2.00;;;;;;;;;;4451913;32;20271;-54
2021/09/08 03:40:05;;;;;;;3.72;2.67;;;;;;;;;;4463006;32;20297;-54
2021/09/08 03:42:31;;;;;;;4.57;2.40;;;;;;;;;;4450248;32;20540;-54
2021/09/08 03:44:57;;;;;;;4.93;2.17;;;;;;;;;;4463332;32;20236;-54
2021/09/08 03:47:23;;;;;;;3.80;2.25;;;;;;;;;;4462594;32;20663;-55
2021/09/08 03:49:49;;;;;;;3.65;2.10;;;;;;;;;;4458625;32;20208;-54
2021/09/08 03:52:15;;;;;;;5.15;2.65;;;;;;;;;;4462028;32;20295;-55
2021/09/08 03:54:41;;;;;;;4.10;2.22;;;;;;;;;;4450349;32;20244;-55
2021/09/08 03:57:07;;;;;;;4.32;2.35;;;;;;;;;;4461946;32;20616;-53
2021/09/08 03:59:36;;;;;;;4.85;2.97;;;;;;;;;;4453840;32;20736;-53
2021/09/08 04:02:02;;;;;;;2.70;2.47;;;;;;;;;;4453797;32;20826;-54
2021/09/08 04:04:28;;;;;;;10.85;3.15;;;;;;;;;;4462251;32;20235;-53
2021/09/08 04:06:53;;;;;;;3.00;2.25;;;;;;;;;;4462537;32;20323;-53
2021/09/08 04:09:18;;;;;;;4.43;2.62;;;;;;;;;;4461452;32;20232;-53
2021/09/08 04:11:45;;;;;;;5.45;2.37;;;;;;;;;;4455552;32;20774;-53
2021/09/08 04:14:10;;;;;;;7.03;2.28;;;;;;;;;;4452958;32;20344;-53
2021/09/08 04:16:36;;;;;;;5.57;2.60;;;;;;;;;;4462221;32;20225;-53
2021/09/08 04:19:02;;;;;;;4.72;2.22;;;;;;;;;;4456511;32;20224;-53
2021/09/08 04:21:27;;;;;;;4.78;3.17;;;;;;;;;;4465458;32;20374;-55
2021/09/08 04:23:53;;;;;;;4.47;3.08;;;;;;;;;;4465627;32;20248;-54
2021/09/08 04:26:19;;;;;;;5.53;2.97;;;;;;;;;;4451224;32;20374;-54
2021/09/08 04:28:44;;;;;;;10.63;3.67;;;;;;;;;;4453960;32;20281;-54
2021/09/08 04:31:10;;;;;;;3.65;2.62;;;;;;;;;;4458455;32;20705;-54
2021/09/08 04:33:35;;;;;;;5.15;2.33;;;;;;;;;;4462747;32;20651;-54
2021/09/08 04:36:00;;;;;;;3.45;2.72;;;;;;;;;;4453431;32;20294;-54
2021/09/08 04:38:26;;;;;;;5.32;4.12;;;;;;;;;;4456733;32;20220;-53
2021/09/08 04:40:52;;;;;;;7.05;3.47;;;;;;;;;;4454791;32;20342;-54
2021/09/08 04:43:17;;;;;;;7.50;3.45;;;;;;;;;;4465404;32;20228;-54
2021/09/08 04:45:43;;;;;;;3.60;2.83;;;;;;;;;;4459253;32;20272;-54
2021/09/08 04:48:08;;;;;;;5.72;2.65;;;;;;;;;;4464590;32;20703;-54
2021/09/08 04:50:34;;;;;;;7.68;3.37;;;;;;;;;;4462331;32;20813;-54
2021/09/08 04:52:59;;;;;;;6.72;3.08;;;;;;;;;;4452141;32;20225;-54
2021/09/08 04:55:25;;;;;;;5.85;2.83;;;;;;;;;;4457970;32;20208;-53
2021/09/08 04:57:50;;;;;;;5.93;3.15;;;;;;;;;;4464656;32;20676;-53
2021/09/08 05:00:16;;;;;;;6.07;3.35;;;;;;;;;;4452478;32;20224;-53
2021/09/08 05:02:41;;;;;;;6.78;2.78;;;;;;;;;;4461652;32;20279;-56
2021/09/08 05:05:08;;;;;;;7.82;3.72;;;;;;;;;;4460136;32;20267;-55
2021/09/08 05:07:33;;;;;;;8.18;3.85;;;;;;;;;;4464907;32;20314;-56
2021/09/08 05:09:59;;;;;;;7.10;3.83;;;;;;;;;;4453561;32;20568;-55
2021/09/08 05:12:24;;;;;;;7.22;3.80;;;;;;;;;;4460603;32;20320;-55
2021/09/08 05:14:50;;;;;;;7.22;4.05;;;;;;;;;;4454247;32;20400;-55
2021/09/08 05:17:15;;;;;;;9.13;4.10;;;;;;;;;;4464934;32;20307;-56
2021/09/08 05:19:40;;;;;;;13.55;3.67;;;;;;;;;;4454551;32;20256;-54
2021/09/08 05:22:06;;;;;;;8.40;4.28;;;;;;;;;;4462222;32;20283;-54
2021/09/08 05:24:31;;;;;;;10.13;3.78;;;;;;;;;;4459669;32;20732;-57
2021/09/08 05:26:57;;;;;;;9.10;3.28;;;;;;;;;;4459894;32;20331;-56
2021/09/08 05:29:22;;;;;;;5.28;3.37;;;;;;;;;;4461320;32;20374;-54
2021/09/08 05:31:48;;;;;;;3.33;3.00;;;;;;;;;;4455849;32;20668;-53
2021/09/08 05:34:13;;;;;;;6.68;3.87;;;;;;;;;;4457907;32;20333;-55
2021/09/08 05:36:38;;;;;;;6.05;4.32;;;;;;;;;;4456822;32;20212;-55
2021/09/08 05:39:04;;;;;;;9.55;4.68;;;;;;;;;;4455693;32;20222;-54
2021/09/08 05:41:29;;;;;;;8.65;4.40;;;;;;;;;;4449991;32;20330;-53
2021/09/08 05:43:55;;;;;;;5.57;3.67;;;;;;;;;;4460416;32;20620;-54
2021/09/08 05:46:20;;;;;;;12.05;5.40;;;;;;;;;;4455935;32;20431;-55
2021/09/08 05:48:46;;;;;;;7.03;4.37;;;;;;;;;;4461550;32;20235;-53
2021/09/08 05:51:12;;;;;;;11.40;3.90;;;;;;;;;;4460365;32;20745;-55
2021/09/08 05:53:37;;;;;;;8.60;4.72;;;;;;;;;;4462300;32;20237;-53
2021/09/08 05:56:04;;;;;;;7.87;3.85;;;;;;;;;;4456569;32;20355;-53
2021/09/08 05:58:30;;;;;;;8.32;4.18;;;;;;;;;;4459680;32;20208;-55
2021/09/08 06:00:55;;;;;;;8.43;4.05;;;;;;;;;;4463330;32;20310;-55
2021/09/08 06:03:21;;;;;;;10.55;3.78;;;;;;;;;;4461447;32;20600;-55
2021/09/08 06:05:46;;;;;;;6.43;4.32;;;;;;;;;;4461301;32;20390;-54
2021/09/08 06:08:11;;;;;;;8.95;3.22;;;;;;;;;;4460989;32;20361;-57
2021/09/08 06:10:37;;;;;;;5.90;3.37;;;;;;;;;;4461608;32;20348;-54
2021/09/08 06:13:03;;;;;;;4.85;2.87;;;;;;;;;;4459708;32;20279;-54
2021/09/08 06:15:28;;;;;;;6.20;3.53;;;;;;;;;;4461253;32;20343;-54
2021/09/08 06:17:54;;;;;;;5.70;3.28;;;;;;;;;;4462475;32;20314;-55
2021/09/08 06:20:19;;;;;;;9.55;3.58;;;;;;;;;;4460695;32;20224;-55
2021/09/08 06:22:45;;;;;;;5.68;3.42;;;;;;;;;;4457495;32;20295;-55
2021/09/08 06:25:11;;;;;;;7.25;3.97;;;;;;;;;;4460627;32;20239;-54
2021/09/08 06:27:38;;;;;;;5.10;3.35;;;;;;;;;;4460701;32;20284;-54
2021/09/08 06:30:05;;;;;;;3.80;2.17;;;;;;;;;;4460799;32;20726;-54
2021/09/08 06:32:30;;;;;;;6.05;3.20;;;;;;;;;;4457798;32;20224;-53
2021/09/08 06:34:56;;;;;;;5.30;3.12;;;;;;;;;;4460466;32;20224;-53
2021/09/08 06:37:21;;;;;;;10.85;3.80;;;;;;;;;;4462192;32;20204;-53
2021/09/08 06:39:47;;;;;;;5.53;3.67;;;;;;;;;;4463296;32;20224;-52
2021/09/08 06:42:12;;;;;;;5.60;3.65;;;;;;;;;;4462928;32;20339;-53
2021/09/08 06:44:38;;;;;;;8.52;3.03;;;;;;;;;;4457796;32;20296;-53
2021/09/08 06:47:03;;;;;;;5.87;2.00;;;;;;;;;;4458817;32;20271;-53
2021/09/08 06:49:29;;;;;;;6.55;2.37;;;;;;;;;;4461740;32;20243;-53
2021/09/08 06:51:54;;;;;;;2.80;2.10;;;;;;;;;;4459998;32;20785;-53
2021/09/08 06:54:20;;;;;;;4.15;2.35;;;;;;;;;;4463056;32;20248;-54
2021/09/08 06:56:45;;;;;;;4.87;2.40;;;;;;;;;;4463425;32;20291;-54
2021/09/08 06:59:11;;;;;;;4.12;2.75;;;;;;;;;;4456565;32;20305;-54
2021/09/08 07:01:36;;;;;;;3.15;1.73;;;;;;;;;;4456929;32;20313;-53
2021/09/08 07:04:02;;;;;;;4.00;1.87;;;;;;;;;;4450701;32;20232;-54
2021/09/08 07:06:28;;;;;;;10.55;3.17;;;;;;;;;;4455261;32;20425;-55
2021/09/08 07:08:53;;;;;;;6.87;2.03;;;;;;;;;;4463138;32;20272;-54
2021/09/08 07:11:20;;;;;;;3.20;2.15;;;;;;;;;;4461032;32;20426;-53
2021/09/08 07:13:47;;;;;;;3.22;2.03;;;;;;;;;;4458641;32;20731;-53
2021/09/08 07:16:13;;;;;;;3.83;2.12;;;;;;;;;;4462034;32;20541;-53
2021/09/08 07:18:38;;;;;;;6.80;2.28;;;;;;;;;;4448374;32;20272;-53
2021/09/08 07:21:04;;;;;;;5.07;2.55;;;;;;;;;;4454144;32;20220;-52
2021/09/08 07:23:30;;;;;;;2.28;1.95;;;;;;;;;;4456496;32;20297;-52
2021/09/08 07:25:56;;;;;;;4.90;1.85;;;;;;;;;;4463366;32;20287;-53
2021/09/08 07:28:22;;;;;;;4.28;2.15;;;;;;;;;;4462757;32;20240;-53
2021/09/08 07:30:53;;;;;;;3.50;2.50;;;;;;;;;;4461319;32;20413;-54
2021/09/08 07:33:22;;;;;;;2.83;2.03;;;;;;;;;;4459820;32;20215;-53
2021/09/08 07:35:48;;;;;;;3.95;2.00;;;;;;;;;;4462913;32;20262;-53
2021/09/08 07:38:18;;;;;;;4.20;2.40;;;;;;;;;;4455172;32;20248;-53
2021/09/08 07:40:45;;;;;;;4.00;2.20;;;;;;;;;;4458673;32;20243;-54
2021/09/08 07:43:10;;;;;;;4.00;1.73;;;;;;;;;;4452272;32;20557;-53
2021/09/08 07:45:36;;;;;;;5.53;2.58;;;;;;;;;;4452449;32;20318;-54
2021/09/08 07:48:01;;;;;;;4.03;2.03;;;;;;;;;;4460962;32;20307;-53
2021/09/08 07:50:27;;;;;;;3.72;2.12;;;;;;;;;;4462862;32;20388;-53
2021/09/08 07:52:52;;;;;;;4.47;2.37;;;;;;;;;;4462831;32;20809;-53
2021/09/08 07:55:18;;;;;;;2.60;1.45;;;;;;;;;;4455586;32;20228;-53
2021/09/08 07:57:43;;;;;;;5.50;2.55;;;;;;;;;;4454216;32;20339;-53
2021/09/08 08:00:09;;;;;;;4.40;2.45;;;;;;;;;;4458371;32;20334;-53
2021/09/08 08:02:46;;;;;;;5.22;2.97;;;;;;;;;;4458481;32;20652;-54
2021/09/08 08:05:12;;;;;;;3.12;2.22;;;;;;;;;;4456553;32;20803;-53
2021/09/08 08:07:38;;;;;;;7.18;1.98;;;;;;;;;;4458407;32;20339;-54
2021/09/08 08:10:05;;;;;;;3.30;1.95;;;;;;;;;;4453520;32;20295;-53
2021/09/08 08:12:30;;;;;;;4.30;2.37;;;;;;;;;;4456885;32;20688;-53
2021/09/08 08:14:56;;;;;;;7.50;2.37;;;;;;;;;;4456005;32;20294;-53
2021/09/08 08:17:21;;;;;;;4.05;2.12;;;;;;;;;;4456836;32;20339;-53
2021/09/08 08:19:47;;;;;;;4.97;2.20;;;;;;;;;;4455265;32;20216;-53
2021/09/08 08:22:14;;;;;;;5.90;2.87;;;;;;;;;;4456886;32;20297;-54
2021/09/08 08:24:40;;;;;;;4.28;2.05;;;;;;;;;;4455364;32;20326;-54
2021/09/08 08:27:06;;;;;;;8.45;2.42;;;;;;;;;;4455778;32;20275;-54
2021/09/08 08:29:32;;;;;;;6.55;1.85;;;;;;;;;;4453722;32;20319;-54
2021/09/08 08:31:57;;;;;;;4.37;2.03;;;;;;;;;;4456073;32;20354;-55
2021/09/08 08:34:23;;;;;;;5.53;3.03;;;;;;;;;;4455759;32;20907;-53
2021/09/08 08:36:49;;;;;;;8.95;2.28;;;;;;;;;;4455511;32;20268;-54
2021/09/08 08:39:15;;;;;;;5.30;2.75;;;;;;;;;;4455199;32;20330;-54
2021/09/08 08:41:41;;;;;;;4.12;2.33;;;;;;;;;;4456406;32;20423;-55
2021/09/08 08:44:08;;;;;;;4.82;2.20;;;;;;;;;;4456316;32;20228;-53
2021/09/08 08:46:34;;;;;;;5.57;2.40;;;;;;;;;;4454326;32;20269;-55
2021/09/08 08:48:59;;;;;;;5.12;2.25;;;;;;;;;;4458189;32;20212;-54
2021/09/08 08:51:25;;;;;;;8.38;2.12;;;;;;;;;;4456722;32;20196;-54
2021/09/08 08:53:51;;;;;;;3.40;2.00;;;;;;;;;;4452480;32;20327;-53
2021/09/08 08:56:17;;;;;;;7.43;4.22;;;;;;;;;;4455245;32;20318;-55
2021/09/08 08:58:43;;;;;;;7.75;2.33;;;;;;;;;;4454659;32;20347;-53
2021/09/08 09:01:23;;;;;;;4.47;2.30;;;;;;;;;;4453211;32;20322;-55
2021/09/08 09:04:09;;;;;;;5.07;2.87;;;;;;;;;;4454515;32;20684;-54
2021/09/08 09:06:41;;;;;;;6.10;1.90;;;;;;;;;;4454070;32;20315;-53
2021/09/08 09:09:15;;;;;;;3.28;1.98;;;;;;;;;;4455131;32;20212;-53
2021/09/08 09:11:43;;;;;;;4.62;2.22;;;;;;;;;;4452243;32;20264;-53
2021/09/08 09:14:11;;;;;;;7.32;2.55;;;;;;;;;;4457652;32;20223;-53
2021/09/08 09:16:39;;;;;;;6.60;1.95;;;;;;;;;;4449881;32;20308;-52
2021/09/08 09:19:06;;;;;;;12.07;2.20;;;;;;;;;;4458242;32;20307;-54
2021/09/08 09:21:32;;;;;;;3.05;1.95;;;;;;;;;;4456279;32;20260;-53
2021/09/08 09:24:01;;;;;;;6.05;2.28;;;;;;;;;;4455338;32;20349;-53
2021/09/08 09:26:29;;;;;;;3.87;2.10;;;;;;;;;;4455532;32;20228;-53
2021/09/08 09:29:13;;;;;;;4.43;2.50;;;;;;;;;;4454706;32;20330;-54
2021/09/08 09:31:50;;;;;;;3.45;1.65;;;;;;;;;;4454888;32;20240;-53
2021/09/08 09:34:15;;;;;;;4.55;2.37;;;;;;;;;;4454432;32;20294;-54
2021/09/08 09:36:41;;;;;;;3.65;1.83;;;;;;;;;;4455206;32;20244;-53
2021/09/08 09:39:06;;;;;;;9.18;2.22;;;;;;;;;;4452769;32;20556;-53
2021/09/08 09:41:35;;;;;;;4.47;2.45;;;;;;;;;;4456491;32;20379;-53
2021/09/08 09:44:14;;;;;;;4.68;2.03;;;;;;;;;;4455373;32;20386;-54
2021/09/08 09:46:42;;;;;;;4.25;2.12;;;;;;;;;;4454192;32;20673;-53
2021/09/08 09:49:07;;;;;;;5.57;2.15;;;;;;;;;;4455024;32;20243;-53
2021/09/08 09:51:33;;;;;;;4.35;2.42;;;;;;;;;;4454703;32;20383;-53
2021/09/08 09:53:59;;;;;;;4.55;2.20;;;;;;;;;;4450549;32;20331;-54
2021/09/08 09:56:24;;;;;;;2.92;2.28;;;;;;;;;;4453150;32;20250;-53
2021/09/08 09:58:50;;;;;;;2.62;2.10;;;;;;;;;;4453750;32;20266;-53
2021/09/08 10:01:18;;;;;;;3.33;2.10;;;;;;;;;;4455391;32;20363;-54
2021/09/08 10:03:43;;;;;;;2.60;1.87;;;;;;;;;;4455277;32;20243;-54
2021/09/08 10:06:10;;;;;;;3.10;1.92;;;;;;;;;;4454319;32;20850;-54
2021/09/08 10:08:45;;;;;;;5.07;1.80;;;;;;;;;;4455014;32;20703;-54
2021/09/08 10:11:14;;;;;;;6.68;2.05;;;;;;;;;;4454344;32;20699;-54
2021/09/08 10:13:48;;;;;;;5.72;2.53;;;;;;;;;;4455779;32;20303;-54
2021/09/08 10:16:14;;;;;;;5.10;2.40;;;;;;;;;;4453358;32;20694;-54
2021/09/08 10:18:41;;;;;;;5.93;2.42;;;;;;;;;;4452648;32;20248;-55
2021/09/08 10:21:09;;;;;;;3.80;2.20;;;;;;;;;;4454471;32;20228;-54
2021/09/08 10:23:39;;;;;;;3.25;1.65;;;;;;;;;;4455275;32;20444;-55
2021/09/08 10:26:17;;;;;;;7.30;2.28;;;;;;;;;;4455552;32;20327;-54
2021/09/08 10:29:06;;;;;;;2.85;2.05;;;;;;;;;;4455239;32;20581;-54
2021/09/08 10:31:36;;;;;;;6.37;2.22;;;;;;;;;;4453775;32;20315;-54
2021/09/08 10:34:03;;;;;;;2.55;2.03;;;;;;;;;;4453059;32;20259;-54
2021/09/08 10:36:30;;;;;;;3.10;2.10;;;;;;;;;;4455561;32;20231;-54
2021/09/08 10:39:04;;;;;;;3.10;2.53;;;;;;;;;;4454747;32;20304;-54
2021/09/08 10:41:46;;;;;;;5.93;2.10;;;;;;;;;;4455674;32;20239;-54
2021/09/08 10:44:14;;;;;;;3.00;1.90;;;;;;;;;;4455796;32;20351;-53
2021/09/08 10:46:54;;;;;;;3.30;2.35;;;;;;;;;;4453097;32;20271;-54
2021/09/08 10:49:40;;;;;;;7.93;2.12;;;;;;;;;;4453723;32;20338;-54
2021/09/08 10:52:06;;;;;;;6.50;2.37;;;;;;;;;;4454347;32;20369;-53
2021/09/08 10:54:32;;;;;;;4.28;1.95;;;;;;;;;;4456296;32;20239;-53
2021/09/08 10:56:58;;;;;;;3.65;2.15;;;;;;;;;;4463239;32;20726;-54
2021/09/08 10:59:24;;;;;;;3.60;1.92;;;;;;;;;;4463193;32;20340;-54
2021/09/08 11:01:53;;;;;;;3.05;1.85;;;;;;;;;;4462856;32;20279;-54
2021/09/08 11:04:19;;;;;;;8.25;2.35;;;;;;;;;;4457999;32;20352;-55
2021/09/08 11:06:48;;;;;;;2.47;1.80;;;;;;;;;;4448840;32;20291;-55
2021/09/08 11:09:16;;;;;;;2.50;1.92;;;;;;;;;;4462793;32;20492;-54
2021/09/08 11:11:59;;;;;;;3.75;1.65;;;;;;;;;;4458659;32;20675;-54
2021/09/08 11:14:50;;;;;;;9.15;3.50;;;;;;;;;;4461634;32;20270;-54
2021/09/08 11:17:25;;;;;;;6.32;2.70;;;;;;;;;;4462099;32;20650;-53
2021/09/08 11:19:52;;;;;;;6.87;2.62;;;;;;;;;;4454263;32;20236;-53
2021/09/08 11:22:18;;;;;;;2.35;1.90;;;;;;;;;;4458756;32;20687;-53
2021/09/08 11:24:43;;;;;;;4.68;2.30;;;;;;;;;;4450606;32;20271;-53
2021/09/08 11:27:09;;;;;;;4.12;2.30;;;;;;;;;;4453605;32;20272;-53
2021/09/08 11:29:35;;;;;;;2.62;1.85;;;;;;;;;;4456789;32;20243;-55
2021/09/08 11:32:00;;;;;;;4.07;1.87;;;;;;;;;;4462467;32;20315;-55
2021/09/08 11:34:27;;;;;;;3.62;2.20;;;;;;;;;;4458921;32;20287;-54
2021/09/08 11:36:55;;;;;;;2.97;1.92;;;;;;;;;;4465362;32;20726;-55
2021/09/08 11:39:22;;;;;;;10.82;2.33;;;;;;;;;;4457791;32;20224;-54
2021/09/08 11:42:02;;;;;;;6.28;2.03;;;;;;;;;;4456590;32;20228;-54
2021/09/08 11:44:28;;;;;;;3.80;2.47;;;;;;;;;;4451911;32;20251;-53
2021/09/08 11:46:54;;;;;;;2.60;1.65;;;;;;;;;;4453702;32;20310;-54
2021/09/08 11:49:20;;;;;;;4.62;1.95;;;;;;;;;;4453888;32;20738;-53
2021/09/08 11:51:46;;;;;;;3.75;1.87;;;;;;;;;;4452200;32;20335;-55
2021/09/08 11:54:17;;;;;;;4.78;1.95;;;;;;;;;;4459252;32;20541;-53
2021/09/08 11:56:50;;;;;;;2.05;1.62;;;;;;;;;;4464162;32;20281;-53
2021/09/08 11:59:16;;;;;;;4.25;1.95;;;;;;;;;;4464509;32;20267;-53
2021/09/08 12:01:42;;;;;;;1.65;1.40;;;;;;;;;;4461735;32;20310;-53
2021/09/08 12:04:09;;;;;;;3.75;1.80;;;;;;;;;;4460430;32;20661;-54
2021/09/08 12:06:59;;;;;;;4.40;2.42;;;;;;;;;;4465644;32;20299;-54
2021/09/08 12:09:51;;;;;;;5.20;1.80;;;;;;;;;;4461832;32;20617;-54
2021/09/08 12:12:17;;;;;;;3.05;1.67;;;;;;;;;;4465275;32;20224;-54
2021/09/08 12:14:47;;;;;;;3.45;1.80;;;;;;;;;;4465147;32;20378;-54
2021/09/08 12:17:18;;;;;;;5.28;2.12;;;;;;;;;;4465000;32;20294;-54
2021/09/08 12:20:08;;;;;;;3.37;1.50;;;;;;;;;;4465004;32;20232;-54
2021/09/08 12:22:35;;;;;;;4.53;2.10;;;;;;;;;;4455255;32;20289;-57
2021/09/08 12:25:12;;;;;;;2.28;1.10;;;;;;;;;;4461157;32;20276;-54
2021/09/08 12:27:40;;;;;;;3.08;1.73;;;;;;;;;;4465807;32;20214;-53
2021/09/08 12:30:09;;;;;;;2.85;1.73;;;;;;;;;;4465668;32;20268;-53
2021/09/08 12:33:10;;;;;;;2.47;1.25;;;;;;;;;;4462081;32;20220;-53
2021/09/08 12:35:38;;;;;;;2.75;1.85;;;;;;;;;;4400807;32;20217;-53
2021/09/08 12:38:27;;;;;;;3.00;1.60;;;;;;;;;;4453169;32;20314;-54
2021/09/08 12:41:27;;;;;;;3.20;1.33;;;;;;;;;;4458070;32;20319;-53
2021/09/08 12:43:52;;;;;;;8.20;1.95;;;;;;;;;;4465034;32;20346;-54
2021/09/08 12:46:35;;;;;;;1.50;1.30;;;;;;;;;;4464399;32;20357;-54
2021/09/08 12:49:01;;;;;;;3.67;1.55;;;;;;;;;;4465498;32;20204;-54
2021/09/08 12:51:26;;;;;;;4.00;1.48;;;;;;;;;;4464199;32;20361;-52
2021/09/08 12:53:52;;;;;;;2.08;1.52;;;;;;;;;;4457113;32;20581;-54
2021/09/08 12:56:17;;;;;;;2.33;1.42;;;;;;;;;;4465073;32;20298;-52
2021/09/08 12:58:43;;;;;;;1.67;1.20;;;;;;;;;;4463194;32;20258;-53
2021/09/08 13:01:08;;;;;;;2.85;1.20;;;;;;;;;;4465233;32;20306;-53
2021/09/08 13:03:34;;;;;;;2.28;1.20;;;;;;;;;;4464557;32;20351;-55
2021/09/08 13:05:59;;;;;;;2.58;1.25;;;;;;;;;;4451730;32;20267;-54
2021/09/08 13:08:25;;;;;;;3.33;1.33;;;;;;;;;;4464985;32;20276;-53
2021/09/08 13:10:50;;;;;;;7.35;1.42;;;;;;;;;;4465727;32;20640;-53
2021/09/08 13:13:16;;;;;;;3.05;1.45;;;;;;;;;;4463036;32;20339;-53
2021/09/08 13:15:43;;;;;;;2.58;1.45;;;;;;;;;;4462827;32;20234;-53
2021/09/08 13:18:09;;;;;;;3.62;1.27;;;;;;;;;;4452596;32;20272;-53
2021/09/08 13:20:34;;;;;;;5.90;1.52;;;;;;;;;;4453920;32;20283;-53
2021/09/08 13:23:00;;;;;;;6.68;1.35;;;;;;;;;;4457673;32;20340;-53
2021/09/08 13:25:25;;;;;;;7.20;1.40;;;;;;;;;;4449532;32;20230;-53
2021/09/08 13:27:51;;;;;;;2.78;1.48;;;;;;;;;;4448758;32;20635;-53
2021/09/08 13:30:17;;;;;;;2.12;1.10;;;;;;;;;;4449800;32;20703;-52
2021/09/08 13:32:42;;;;;;;2.17;1.37;;;;;;;;;;4453513;32;20319;-55
2021/09/08 13:35:08;;;;;;;2.10;1.10;;;;;;;;;;4449291;32;20589;-53
2021/09/08 13:37:34;;;;;;;1.60;1.20;;;;;;;;;;4449474;32;20402;-54
2021/09/08 13:39:59;;;;;;;1.85;1.33;;;;;;;;;;4463234;32;20215;-54
2021/09/08 13:42:25;;;;;;;3.97;1.67;;;;;;;;;;4464832;32;20809;-53
2021/09/08 13:44:50;;;;;;;1.27;0.93;;;;;;;;;;4464035;32;20339;-53
2021/09/08 13:47:15;;;;;;;5.62;1.50;;;;;;;;;;4458524;32;20291;-53
2021/09/08 13:49:41;;;;;;;12.95;8.32;;;;;;;;;;4463047;32;20288;-53
2021/09/08 13:52:06;;;;;;;1.48;1.23;;;;;;;;;;4458601;32;20302;-53
2021/09/08 13:54:34;;;;;;;4.97;1.73;;;;;;;;;;4449322;32;20743;-53
2021/09/08 13:57:00;;;;;;;1.70;1.25;;;;;;;;;;4447764;32;20699;-54
2021/09/08 13:59:25;;;;;;;8.35;1.12;;;;;;;;;;4461590;32;20574;-53
2021/09/08 14:01:55;;;;;;;5.55;1.40;;;;;;;;;;4463524;32;20322;-53
2021/09/08 14:04:21;;;;;;;2.90;1.40;;;;;;;;;;4463741;32;20227;-53
2021/09/08 14:06:47;;;;;;;5.32;1.70;;;;;;;;;;4463382;32;20244;-53
2021/09/08 14:09:12;;;;;;;2.05;1.40;;;;;;;;;;4462396;32;20873;-54
2021/09/08 14:11:38;;;;;;;2.40;1.50;;;;;;;;;;4462784;32;20643;-55
2021/09/08 14:14:03;;;;;;;4.35;1.33;;;;;;;;;;4463383;32;20569;-55
2021/09/08 14:16:29;;;;;;;1.92;1.58;;;;;;;;;;4453539;32;20566;-56
2021/09/08 14:18:54;;;;;;;4.47;1.58;;;;;;;;;;4462584;32;20232;-55
2021/09/08 14:21:19;;;;;;;1.87;1.30;;;;;;;;;;4461686;32;20299;-54
2021/09/08 14:23:45;;;;;;;4.93;1.60;;;;;;;;;;4446987;32;20707;-54
2021/09/08 14:26:14;;;;;;;5.22;1.05;;;;;;;;;;4450166;32;20422;-54
2021/09/08 14:28:39;;;;;;;1.23;1.08;;;;;;;;;;4461068;32;20291;-54
2021/09/08 14:31:05;;;;;;;2.75;1.10;;;;;;;;;;4462929;32;20762;-55
2021/09/08 14:33:30;;;;;;;2.20;1.45;;;;;;;;;;4460462;32;20584;-54
2021/09/08 14:35:56;;;;;;;10.27;1.35;;;;;;;;;;4463092;32;20651;-54
2021/09/08 14:38:21;;;;;;;4.30;1.30;;;;;;;;;;4463837;32;20220;-54
2021/09/08 14:40:47;;;;;;;4.25;1.77;;;;;;;;;;4463733;32;20327;-54